createdAt,value
2017-07-12T00:01:29.637Z,25.00
2017-07-12T00:03:55.734Z,18.87
2017-07-12T00:06:21.765Z,27.10
2017-07-12T00:08:47.817Z,24.63
2017-07-12T00:11:13.854Z,26.27
2017-07-12T00:13:40.646Z,25.37
2017-07-12T00:16:06.703Z,20.80
2017-07-12T00:18:32.738Z,22.20
2017-07-12T00:20:58.833Z,25.87
2017-07-12T00:23:24.873Z,21.10
2017-07-12T00:25:50.891Z,20.20
2017-07-12T00:28:16.945Z,23.80
2017-07-12T00:30:42.998Z,21.13
2017-07-12T00:33:09.170Z,25.50
2017-07-12T00:35:35.203Z,25.03
2017-07-12T00:38:01.230Z,22.03
2017-07-12T00:40:27.262Z,20.20
2017-07-12T00:42:53.334Z,17.73
2017-07-12T00:45:19.377Z,18.17
2017-07-12T00:47:45.406Z,24.60
2017-07-12T00:50:11.446Z,19.77
2017-07-12T00:52:37.493Z,17.33
2017-07-12T00:55:03.556Z,22.83
2017-07-12T00:57:29.590Z,18.00
2017-07-12T00:59:55.626Z,22.97
2017-07-12T01:02:21.642Z,20.73
2017-07-12T01:04:48.454Z,23.20
2017-07-12T01:07:14.481Z,23.73
2017-07-12T01:09:40.538Z,19.17
2017-07-12T01:12:06.569Z,20.93
2017-07-12T01:14:32.634Z,21.00
2017-07-12T01:16:59.105Z,22.80
2017-07-12T01:19:25.161Z,20.07
2017-07-12T01:21:51.190Z,18.03
2017-07-12T01:24:17.234Z,20.07
2017-07-12T01:26:43.405Z,27.53
2017-07-12T01:29:09.969Z,20.93
2017-07-12T01:31:36.013Z,25.60
2017-07-12T01:34:02.046Z,28.23
2017-07-12T01:36:28.082Z,23.40
2017-07-12T01:38:54.128Z,27.17
2017-07-12T01:41:20.935Z,29.00
2017-07-12T01:43:47.750Z,28.47
2017-07-12T01:46:13.793Z,26.37
2017-07-12T01:48:39.889Z,31.30
2017-07-12T01:51:06.701Z,29.67
2017-07-12T01:53:32.770Z,29.20
2017-07-12T01:55:58.798Z,38.10
2017-07-12T01:58:24.877Z,32.13
2017-07-12T02:00:50.913Z,35.07
2017-07-12T02:03:16.978Z,37.80
2017-07-12T02:05:43.034Z,36.77
2017-07-12T02:08:09.103Z,37.70
2017-07-12T02:10:35.166Z,44.37
2017-07-12T02:13:01.230Z,46.00
2017-07-12T02:15:27.270Z,44.07
2017-07-12T02:17:53.317Z,40.73
2017-07-12T02:20:19.374Z,50.77
2017-07-12T02:22:45.440Z,51.53
2017-07-12T02:25:11.493Z,47.13
2017-07-12T02:27:37.545Z,47.00
2017-07-12T02:30:03.586Z,40.67
2017-07-12T02:32:29.621Z,48.90
2017-07-12T02:34:55.656Z,50.03
2017-07-12T02:37:21.691Z,50.83
2017-07-12T02:39:47.729Z,41.77
2017-07-12T02:42:13.754Z,49.07
2017-07-12T02:44:39.815Z,49.77
2017-07-12T02:47:05.857Z,43.43
2017-07-12T02:49:31.930Z,41.47
2017-07-12T02:51:57.994Z,50.93
2017-07-12T02:54:24.031Z,48.43
2017-07-12T02:56:50.066Z,47.80
2017-07-12T02:59:16.874Z,46.53
2017-07-12T03:01:42.917Z,47.10
2017-07-12T03:04:08.957Z,46.77
2017-07-12T03:06:34.992Z,46.40
2017-07-12T03:09:01.053Z,47.10
2017-07-12T03:11:27.113Z,52.63
2017-07-12T03:13:53.188Z,47.77
2017-07-12T03:16:19.277Z,42.77
2017-07-12T03:18:45.334Z,44.07
2017-07-12T03:21:11.394Z,51.53
2017-07-12T03:23:37.485Z,48.13
2017-07-12T03:26:03.508Z,48.90
2017-07-12T03:28:29.574Z,52.67
2017-07-12T03:30:55.609Z,50.30
2017-07-12T03:33:21.637Z,47.80
2017-07-12T03:35:47.693Z,48.57
2017-07-12T03:38:13.758Z,55.30
2017-07-12T03:40:39.785Z,53.40
2017-07-12T03:43:12.637Z,56.97
2017-07-12T03:45:38.745Z,60.43
2017-07-12T03:48:04.907Z,47.83
2017-07-12T03:50:30.938Z,57.30
2017-07-12T03:52:57.001Z,60.80
2017-07-12T03:55:23.104Z,52.03
2017-07-12T03:57:49.165Z,61.80
2017-07-12T04:00:15.248Z,56.60
2017-07-12T04:02:41.328Z,56.87
2017-07-12T04:05:07.425Z,50.60
2017-07-12T04:07:33.449Z,63.07
2017-07-12T04:09:59.486Z,53.03
2017-07-12T04:12:25.561Z,61.20
2017-07-12T04:14:51.633Z,59.53
2017-07-12T04:17:18.403Z,51.83
2017-07-12T04:19:44.417Z,53.20
2017-07-12T04:22:10.465Z,65.07
2017-07-12T04:24:36.519Z,57.97
2017-07-12T04:27:02.570Z,65.10
2017-07-12T04:29:28.601Z,55.53
2017-07-12T04:31:54.637Z,60.40
2017-07-12T04:34:20.697Z,53.57
2017-07-12T04:36:46.728Z,60.93
2017-07-12T04:39:12.753Z,58.73
2017-07-12T04:41:39.550Z,58.27
2017-07-12T04:44:05.595Z,59.60
2017-07-12T04:46:31.638Z,65.50
2017-07-12T04:48:57.692Z,56.33
2017-07-12T04:51:24.479Z,46.43
2017-07-12T04:53:50.509Z,60.13
2017-07-12T04:56:16.606Z,62.60
2017-07-12T04:58:42.649Z,48.40
2017-07-12T05:01:08.702Z,54.43
2017-07-12T05:03:34.745Z,45.53
2017-07-12T05:06:00.773Z,52.77
2017-07-12T05:08:26.822Z,57.50
2017-07-12T05:10:52.930Z,56.10
2017-07-12T05:13:18.992Z,54.40
2017-07-12T05:15:45.797Z,48.03
2017-07-12T05:18:11.854Z,32.77
2017-07-12T05:20:37.889Z,37.97
2017-07-12T05:23:03.962Z,39.13
2017-07-12T05:25:30.102Z,43.57
2017-07-12T05:27:56.131Z,48.40
2017-07-12T05:30:22.193Z,36.83
2017-07-12T05:32:49.030Z,39.27
2017-07-12T05:35:15.103Z,38.47
2017-07-12T05:37:41.170Z,44.93
2017-07-12T05:40:07.202Z,42.77
2017-07-12T05:42:33.224Z,41.20
2017-07-12T05:44:59.249Z,46.23
2017-07-12T05:47:25.275Z,50.13
2017-07-12T05:49:52.081Z,35.07
2017-07-12T05:52:18.877Z,33.43
2017-07-12T05:54:44.933Z,34.57
2017-07-12T05:57:11.707Z,33.67
2017-07-12T05:59:37.746Z,45.13
2017-07-12T06:02:04.568Z,35.87
2017-07-12T06:04:30.598Z,34.97
2017-07-12T06:06:57.412Z,38.60
2017-07-12T06:09:23.433Z,43.10
2017-07-12T06:11:50.198Z,37.63
2017-07-12T06:14:16.222Z,36.60
2017-07-12T06:16:42.268Z,37.77
2017-07-12T06:19:08.306Z,40.20
2017-07-12T06:21:34.367Z,42.63
2017-07-12T06:24:00.388Z,41.53
2017-07-12T06:26:26.438Z,31.87
2017-07-12T06:28:52.482Z,31.63
2017-07-12T06:31:18.522Z,34.30
2017-07-12T06:33:45.340Z,35.27
2017-07-12T06:36:11.362Z,40.40
2017-07-12T06:38:37.449Z,30.07
2017-07-12T06:41:03.481Z,28.10
2017-07-12T06:43:30.254Z,30.97
2017-07-12T06:45:56.281Z,25.80
2017-07-12T06:48:22.338Z,24.63
2017-07-12T06:50:48.350Z,37.63
2017-07-12T06:53:15.139Z,26.40
2017-07-12T06:55:41.162Z,31.37
2017-07-12T06:58:07.926Z,30.50
2017-07-12T07:00:33.961Z,26.17
2017-07-12T07:02:59.997Z,30.07
2017-07-12T07:05:26.017Z,28.93
2017-07-12T07:07:52.045Z,21.97
2017-07-12T07:10:18.814Z,23.23
2017-07-12T07:12:44.853Z,17.57
2017-07-12T07:15:10.913Z,24.37
2017-07-12T07:17:36.956Z,21.20
2017-07-12T07:20:03.022Z,27.43
2017-07-12T07:22:29.060Z,21.70
2017-07-12T07:25:02.190Z,23.40
2017-07-12T07:27:28.230Z,20.03
2017-07-12T07:29:54.254Z,20.30
2017-07-12T07:32:20.298Z,20.13
2017-07-12T07:34:47.074Z,20.80
2017-07-12T07:37:13.105Z,19.83
2017-07-12T07:39:39.129Z,21.80
2017-07-12T07:42:05.193Z,22.63
2017-07-12T07:44:31.218Z,21.83
2017-07-12T07:46:57.277Z,22.30
2017-07-12T07:49:24.038Z,22.10
2017-07-12T07:51:50.058Z,24.90
2017-07-12T07:54:16.089Z,28.00
2017-07-12T07:56:42.139Z,29.33
2017-07-12T07:59:08.182Z,29.77
2017-07-12T08:01:34.224Z,28.90
2017-07-12T08:04:00.268Z,30.60
2017-07-12T08:06:26.294Z,25.17
2017-07-12T08:08:52.326Z,27.93
2017-07-12T08:11:18.349Z,30.53
2017-07-12T08:13:44.389Z,30.60
2017-07-12T08:16:11.184Z,28.50
2017-07-12T08:18:37.240Z,25.10
2017-07-12T08:21:03.270Z,30.23
2017-07-12T08:23:29.337Z,26.77
2017-07-12T08:25:56.113Z,28.70
2017-07-12T08:28:22.150Z,27.20
2017-07-12T08:30:48.939Z,29.97
2017-07-12T08:33:14.977Z,31.60
2017-07-12T08:35:41.046Z,32.07
2017-07-12T08:38:07.114Z,29.93
2017-07-12T08:40:33.913Z,28.63
2017-07-12T08:42:59.951Z,28.07
2017-07-12T08:45:26.002Z,40.80
2017-07-12T08:47:52.029Z,34.50
2017-07-12T08:50:18.053Z,29.93
2017-07-12T08:52:44.090Z,30.10
2017-07-12T08:55:25.827Z,31.50
2017-07-12T08:57:51.867Z,37.83
2017-07-12T09:00:18.661Z,33.63
2017-07-12T09:02:44.710Z,32.70
2017-07-12T09:05:10.741Z,35.20
2017-07-12T09:07:36.797Z,34.80
2017-07-12T09:10:02.841Z,35.00
2017-07-12T09:12:29.621Z,32.20
2017-07-12T09:14:55.657Z,36.83
2017-07-12T09:17:21.723Z,38.97
2017-07-12T09:19:47.790Z,32.80
2017-07-12T09:22:14.565Z,37.10
2017-07-12T09:34:24.535Z,42.57
2017-07-12T09:36:50.593Z,42.60
2017-07-12T09:39:16.614Z,35.10
2017-07-12T09:41:42.649Z,54.40
2017-07-12T09:44:08.681Z,36.50
2017-07-12T09:46:35.458Z,35.77
2017-07-12T09:49:01.489Z,40.10
2017-07-12T09:51:27.575Z,34.53
2017-07-12T09:53:53.634Z,37.43
2017-07-12T09:56:19.678Z,41.90
2017-07-12T09:58:45.725Z,36.30
2017-07-12T10:01:11.765Z,44.60
2017-07-12T10:03:37.802Z,36.93
2017-07-12T10:06:03.869Z,41.33
2017-07-12T10:08:29.996Z,36.37
2017-07-12T10:10:56.015Z,46.33
2017-07-12T10:13:22.801Z,31.87
2017-07-12T10:15:48.821Z,34.53
2017-07-12T10:18:14.849Z,43.80
2017-07-12T10:20:41.617Z,41.90
2017-07-12T10:23:07.641Z,31.87
2017-07-12T10:25:33.661Z,32.00
2017-07-12T10:27:59.703Z,31.23
2017-07-12T10:30:26.483Z,22.37
2017-07-12T10:32:52.540Z,25.20
2017-07-12T10:35:19.333Z,26.63
2017-07-12T10:37:45.394Z,23.33
2017-07-12T10:40:11.417Z,24.30
2017-07-12T10:42:37.489Z,26.57
2017-07-12T10:45:04.247Z,28.00
2017-07-12T10:47:30.273Z,25.30
2017-07-12T10:49:56.291Z,21.10
2017-07-12T10:52:22.333Z,26.63
2017-07-12T10:54:48.383Z,17.47
2017-07-12T10:57:14.431Z,23.20
2017-07-12T10:59:40.450Z,18.20
2017-07-12T11:02:06.509Z,21.17
2017-07-12T11:04:32.550Z,19.70
2017-07-12T11:06:58.578Z,24.87
2017-07-12T11:09:24.630Z,23.30
2017-07-12T11:11:50.665Z,17.20
2017-07-12T11:14:16.731Z,18.47
2017-07-12T11:16:42.777Z,20.00
2017-07-12T11:19:08.805Z,16.67
2017-07-12T11:21:34.869Z,19.47
2017-07-12T11:24:00.893Z,16.03
2017-07-12T11:26:26.948Z,13.87
2017-07-12T11:28:53.069Z,13.07
2017-07-12T11:31:19.118Z,15.20
2017-07-12T11:33:45.146Z,13.47
2017-07-12T11:36:11.212Z,15.00
2017-07-12T11:38:37.247Z,12.13
2017-07-12T11:41:03.284Z,13.00
2017-07-12T11:43:29.321Z,16.47
2017-07-12T11:45:56.089Z,12.10
2017-07-12T11:48:22.165Z,13.50
2017-07-12T11:50:48.195Z,13.87
2017-07-12T11:53:14.238Z,13.50
2017-07-12T11:55:40.297Z,12.53
2017-07-12T11:58:07.077Z,18.07
2017-07-12T12:00:33.109Z,14.97
2017-07-12T12:02:59.149Z,17.07
2017-07-12T12:05:25.201Z,18.00
2017-07-12T12:07:51.269Z,16.00
2017-07-12T12:10:17.317Z,15.60
2017-07-12T12:12:43.370Z,20.73
2017-07-12T12:15:10.144Z,14.30
2017-07-12T12:17:36.180Z,11.80
2017-07-12T12:20:02.205Z,11.03
2017-07-12T12:22:28.981Z,14.53
2017-07-12T12:24:55.002Z,15.33
2017-07-12T12:27:21.057Z,13.40
2017-07-12T12:29:47.842Z,16.93
2017-07-12T12:32:13.879Z,17.90
2017-07-12T12:34:39.913Z,12.87
2017-07-12T12:37:05.936Z,13.43
2017-07-12T12:39:31.981Z,15.47
2017-07-12T12:41:57.999Z,11.87
2017-07-12T12:44:24.029Z,13.00
2017-07-12T12:46:50.837Z,10.23
2017-07-12T12:49:16.887Z,11.37
2017-07-12T12:51:42.909Z,9.50
2017-07-12T12:54:08.974Z,11.80
2017-07-12T12:56:35.006Z,9.90
2017-07-12T12:59:01.074Z,10.40
2017-07-12T13:01:27.097Z,9.23
2017-07-12T13:03:53.134Z,7.57
2017-07-12T13:06:19.910Z,7.37
2017-07-12T13:08:45.949Z,8.87
2017-07-12T13:11:11.989Z,6.67
2017-07-12T13:13:38.039Z,6.30
2017-07-12T13:16:04.107Z,10.27
2017-07-12T13:18:30.156Z,6.90
2017-07-12T13:20:56.181Z,6.07
2017-07-12T13:23:22.221Z,6.83
2017-07-12T13:25:48.984Z,5.70
2017-07-12T13:28:15.020Z,5.97
2017-07-12T13:30:41.062Z,5.57
2017-07-12T13:33:07.089Z,6.13
2017-07-12T13:35:33.145Z,5.83
2017-07-12T13:37:59.170Z,6.70
2017-07-12T13:40:25.949Z,6.80
2017-07-12T13:42:51.987Z,7.20
2017-07-12T13:45:18.041Z,7.10
2017-07-12T13:47:44.091Z,6.17
2017-07-12T13:50:10.166Z,8.37
2017-07-12T13:52:36.204Z,8.00
2017-07-12T13:55:02.281Z,9.93
2017-07-12T13:57:28.305Z,8.40
2017-07-12T13:59:54.341Z,13.30
2017-07-12T14:02:20.394Z,7.80
2017-07-12T14:04:47.170Z,8.33
2017-07-12T14:07:13.212Z,10.97
2017-07-12T14:09:39.245Z,10.37
2017-07-12T14:12:05.282Z,8.83
2017-07-12T14:14:31.369Z,10.50
2017-07-12T14:16:57.385Z,7.07
2017-07-12T14:19:23.437Z,6.77
2017-07-12T14:21:49.457Z,5.30
2017-07-12T14:24:22.438Z,6.47
2017-07-12T14:26:48.466Z,5.10
2017-07-12T14:29:14.512Z,5.67
2017-07-12T14:31:40.565Z,5.10
2017-07-12T14:34:07.349Z,5.10
2017-07-12T14:36:33.373Z,5.80
2017-07-12T14:38:59.381Z,4.10
2017-07-12T14:41:25.436Z,4.47
2017-07-12T14:43:51.457Z,4.40
2017-07-12T14:46:24.465Z,6.00
2017-07-12T14:48:50.521Z,4.17
2017-07-12T14:51:16.560Z,3.30
2017-07-12T14:53:42.580Z,3.67
2017-07-12T14:56:08.614Z,4.20
2017-07-12T14:58:34.636Z,4.10
2017-07-12T15:01:00.670Z,5.83
2017-07-12T15:03:27.430Z,3.37
2017-07-12T15:05:53.465Z,3.97
2017-07-12T15:08:19.495Z,4.30
2017-07-12T15:10:46.289Z,6.37
2017-07-12T15:13:12.357Z,4.53
2017-07-12T15:15:38.389Z,4.40
2017-07-12T15:18:04.417Z,4.13
2017-07-12T15:20:30.466Z,6.53
2017-07-12T15:22:57.236Z,4.80
2017-07-12T15:25:23.269Z,4.83
2017-07-12T15:27:49.285Z,3.93
2017-07-12T15:30:15.305Z,3.60
2017-07-12T15:32:41.342Z,3.70
2017-07-12T15:35:07.385Z,3.97
2017-07-12T15:37:33.425Z,4.30
2017-07-12T15:39:59.488Z,4.83
2017-07-12T15:42:25.522Z,4.07
2017-07-12T15:44:51.557Z,5.30
2017-07-12T15:47:18.345Z,11.37
2017-07-12T15:49:44.381Z,6.30
2017-07-12T15:52:10.404Z,5.90
2017-07-12T15:54:36.423Z,8.43
2017-07-12T15:57:02.468Z,8.47
2017-07-12T15:59:28.512Z,8.03
2017-07-12T16:01:54.546Z,9.90
2017-07-12T16:04:21.310Z,9.73
2017-07-12T16:06:47.370Z,13.80
2017-07-12T16:09:14.124Z,15.07
2017-07-12T16:11:40.146Z,10.00
2017-07-12T16:14:06.165Z,14.97
2017-07-12T16:16:32.209Z,11.63
2017-07-12T16:18:58.229Z,14.53
2017-07-12T16:21:24.998Z,12.60
2017-07-12T16:23:51.018Z,14.90
2017-07-12T16:26:17.050Z,19.30
2017-07-12T16:28:43.094Z,15.87
2017-07-12T16:31:09.945Z,18.50
2017-07-12T16:33:36.021Z,12.20
2017-07-12T16:36:02.064Z,19.80
2017-07-12T16:38:28.114Z,14.67
2017-07-12T16:40:54.159Z,12.53
2017-07-12T16:43:20.230Z,13.73
2017-07-12T16:45:46.258Z,18.70
2017-07-12T16:48:12.313Z,15.60
2017-07-12T16:50:38.345Z,12.40
2017-07-12T16:53:04.389Z,11.60
2017-07-12T16:55:31.157Z,16.33
2017-07-12T16:57:57.205Z,14.67
2017-07-12T17:00:23.237Z,12.23
2017-07-12T17:02:50.061Z,17.43
2017-07-12T17:05:16.837Z,15.70
2017-07-12T17:07:42.894Z,15.07
2017-07-12T17:10:08.927Z,12.50
2017-07-12T17:12:34.962Z,14.40
2017-07-12T17:15:00.997Z,15.70
2017-07-12T17:17:27.053Z,17.87
2017-07-12T17:19:53.113Z,20.27
2017-07-12T17:22:19.261Z,16.63
2017-07-12T17:24:45.213Z,18.37
2017-07-12T17:27:11.237Z,10.40
2017-07-12T17:29:37.293Z,14.77
2017-07-12T17:32:03.333Z,12.50
2017-07-12T17:34:29.370Z,22.30
2017-07-12T17:36:55.401Z,13.70
2017-07-12T17:39:21.485Z,11.47
2017-07-12T17:41:47.513Z,15.93
2017-07-12T17:44:14.301Z,20.37
2017-07-12T17:46:40.353Z,18.30
2017-07-12T17:49:07.129Z,13.00
2017-07-12T17:51:33.177Z,29.90
2017-07-12T17:53:59.218Z,20.70
2017-07-12T17:56:25.251Z,19.90
2017-07-12T17:58:51.300Z,13.43
2017-07-12T18:01:17.350Z,24.97
2017-07-12T18:03:43.406Z,15.27
2017-07-12T18:06:09.449Z,14.03
2017-07-12T18:08:36.230Z,23.70
2017-07-12T18:11:02.265Z,13.13
2017-07-12T18:13:28.298Z,13.83
2017-07-12T18:15:54.342Z,12.10
2017-07-12T18:18:20.385Z,9.93
2017-07-12T18:20:46.419Z,14.00
2017-07-12T18:23:13.182Z,10.93
2017-07-12T18:25:39.199Z,14.10
2017-07-12T18:28:05.232Z,10.53
2017-07-12T18:30:31.281Z,10.27
2017-07-12T18:32:57.326Z,8.20
2017-07-12T18:35:23.349Z,14.60
2017-07-12T18:37:49.383Z,10.10
2017-07-12T18:40:15.418Z,18.43
2017-07-12T18:42:41.457Z,13.87
2017-07-12T18:45:07.486Z,9.63
2017-07-12T18:47:33.517Z,9.13
2017-07-12T18:49:59.554Z,15.60
2017-07-12T18:52:25.606Z,9.53
2017-07-12T18:54:51.642Z,18.40
2017-07-12T18:57:18.458Z,12.47
2017-07-12T18:59:44.485Z,8.70
2017-07-12T19:02:10.518Z,11.80
2017-07-12T19:04:36.546Z,11.87
2017-07-12T19:07:02.558Z,11.37
2017-07-12T19:09:28.608Z,18.00
2017-07-12T19:11:54.633Z,14.93
2017-07-12T19:14:21.406Z,11.43
2017-07-12T19:16:47.454Z,13.10
2017-07-12T19:19:14.241Z,9.77
2017-07-12T19:21:40.271Z,20.63
2017-07-12T19:24:06.296Z,21.60
2017-07-12T19:26:32.352Z,8.20
2017-07-12T19:28:58.389Z,18.43
2017-07-12T19:31:24.421Z,18.57
2017-07-12T19:33:50.469Z,17.70
2017-07-12T19:36:16.525Z,16.70
2017-07-12T19:38:42.598Z,19.87
2017-07-12T19:41:08.637Z,12.40
2017-07-12T19:43:34.742Z,19.40
2017-07-12T19:46:00.777Z,13.80
2017-07-12T19:48:26.838Z,15.33
2017-07-12T19:50:52.928Z,15.03
2017-07-12T19:53:18.973Z,9.63
2017-07-12T19:55:45.003Z,12.07
2017-07-12T19:58:11.035Z,7.80
2017-07-12T20:00:37.941Z,14.73
2017-07-12T20:03:03.991Z,13.53
2017-07-12T20:05:30.057Z,24.63
2017-07-12T20:07:56.132Z,14.50
2017-07-12T20:10:22.171Z,12.73
2017-07-12T20:12:48.216Z,10.83
2017-07-12T20:15:15.022Z,13.00
2017-07-12T20:17:41.105Z,10.20
2017-07-12T20:20:07.171Z,14.33
2017-07-12T20:22:33.211Z,24.23
2017-07-12T20:24:59.234Z,12.60
2017-07-12T20:27:25.282Z,12.77
2017-07-12T20:29:51.326Z,22.63
2017-07-12T20:32:17.346Z,20.90
2017-07-12T20:34:43.377Z,5.83
2017-07-12T20:37:09.409Z,11.00
2017-07-12T20:39:36.189Z,15.43
2017-07-12T20:42:02.240Z,13.27
2017-07-12T20:44:28.258Z,20.50
2017-07-12T20:46:54.314Z,19.33
2017-07-12T20:49:20.341Z,15.43
2017-07-12T20:51:46.468Z,18.80
2017-07-12T20:54:12.673Z,23.63
2017-07-12T20:56:38.722Z,9.00
2017-07-12T20:59:04.853Z,20.30
2017-07-12T21:01:31.499Z,18.00
2017-07-12T21:03:57.547Z,13.47
2017-07-12T21:06:24.349Z,23.57
2017-07-12T21:08:50.395Z,12.00
2017-07-12T21:11:17.193Z,14.20
2017-07-12T21:13:43.235Z,15.63
2017-07-12T21:16:09.293Z,13.40
2017-07-12T21:18:35.338Z,10.67
2017-07-12T21:21:02.097Z,19.23
2017-07-12T21:23:28.145Z,14.30
2017-07-12T21:25:54.177Z,22.17
2017-07-12T21:28:20.958Z,15.53
2017-07-12T21:30:53.978Z,16.13
2017-07-12T21:33:19.996Z,9.60
2017-07-12T21:35:46.757Z,17.67
2017-07-12T21:38:12.805Z,27.53
2017-07-12T21:40:38.829Z,17.50
2017-07-12T21:43:04.845Z,15.33
2017-07-12T21:45:31.613Z,18.87
2017-07-12T21:47:57.634Z,23.13
2017-07-12T21:50:23.678Z,16.97
2017-07-12T21:52:50.485Z,35.17
2017-07-12T21:55:35.175Z,23.57
2017-07-12T21:58:26.110Z,14.37
2017-07-12T22:01:16.929Z,20.13
2017-07-12T22:04:07.681Z,12.80
2017-07-12T22:06:58.520Z,13.07
2017-07-12T22:09:49.585Z,15.43
2017-07-12T22:12:40.394Z,18.43
2017-07-12T22:15:31.374Z,8.10
2017-07-12T22:18:22.121Z,18.70
2017-07-12T22:21:13.091Z,17.07
2017-07-12T22:24:03.828Z,15.53
2017-07-12T22:26:55.521Z,15.33
2017-07-12T22:29:46.393Z,16.40
2017-07-12T22:32:37.310Z,10.30
2017-07-12T22:35:28.850Z,21.10
2017-07-12T22:38:07.121Z,22.77
2017-07-12T22:40:39.914Z,20.90
2017-07-12T22:43:12.005Z,22.20
2017-07-12T22:45:38.037Z,18.80
2017-07-12T22:48:04.058Z,16.10
2017-07-12T22:50:30.837Z,19.03
2017-07-12T22:52:58.368Z,16.43
2017-07-12T22:55:24.395Z,18.23
2017-07-12T22:57:50.422Z,21.03
2017-07-12T23:00:16.470Z,18.60
2017-07-12T23:02:42.485Z,19.40
2017-07-12T23:05:08.525Z,19.03
2017-07-12T23:07:34.540Z,10.53
2017-07-12T23:10:00.570Z,17.50
2017-07-12T23:12:26.594Z,13.40
2017-07-12T23:14:52.641Z,14.90
2017-07-12T23:17:18.686Z,17.03
2017-07-12T23:19:44.696Z,22.67
2017-07-12T23:22:10.745Z,12.50
2017-07-12T23:24:36.762Z,22.97
2017-07-12T23:27:02.805Z,20.83
2017-07-12T23:29:28.829Z,15.90
2017-07-12T23:31:54.862Z,30.93
2017-07-12T23:34:21.622Z,26.37
2017-07-12T23:36:47.661Z,15.80
2017-07-12T23:39:13.717Z,17.87
2017-07-12T23:41:39.777Z,15.77
2017-07-12T23:44:05.827Z,19.30
2017-07-12T23:46:31.967Z,21.17
2017-07-12T23:48:57.918Z,20.80
2017-07-12T23:51:24.692Z,22.40
2017-07-12T23:53:50.739Z,15.10
2017-07-12T23:56:16.778Z,16.47
2017-07-12T23:58:43.557Z,19.23
